sensor_id;sensor_type;location;lat;lon;timestamp;pressure;altitude;pressure_sealevel;temperature;humidity
60427;BME280;46274;47.168;27.604;2022-08-24T00:01:34;99980.84;;;24.60;65.75
60427;BME280;46274;47.168;27.604;2022-08-24T00:07:36;100001.09;;;24.61;65.42
60427;BME280;46274;47.168;27.604;2022-08-24T00:13:38;100018.00;;;24.64;65.22
60427;BME280;46274;47.168;27.604;2022-08-24T00:19:40;100024.06;;;24.61;65.07
60427;BME280;46274;47.168;27.604;2022-08-24T00:25:43;100026.03;;;24.61;65.15
60427;BME280;46274;47.168;27.604;2022-08-24T00:31:45;100027.66;;;24.56;64.96
60427;BME280;46274;47.168;27.604;2022-08-24T00:37:48;100019.03;;;24.48;64.86
60427;BME280;46274;47.168;27.604;2022-08-24T00:43:55;100053.16;;;24.58;64.74
60427;BME280;46274;47.168;27.604;2022-08-24T00:50:05;100063.94;;;24.60;64.70
60427;BME280;46274;47.168;27.604;2022-08-24T00:56:13;100050.91;;;24.50;64.52
60427;BME280;46274;47.168;27.604;2022-08-24T01:02:22;100061.72;;;24.57;64.85
60427;BME280;46274;47.168;27.604;2022-08-24T01:08:25;100037.06;;;24.50;65.21
60427;BME280;46274;47.168;27.604;2022-08-24T01:14:28;100025.69;;;24.52;64.88
60427;BME280;46274;47.168;27.604;2022-08-24T01:20:30;100003.78;;;24.45;64.84
60427;BME280;46274;47.168;27.604;2022-08-24T01:26:36;100016.81;;;24.50;64.77
60427;BME280;46274;47.168;27.604;2022-08-24T01:32:41;100000.72;;;24.47;64.91
60427;BME280;46274;47.168;27.604;2022-08-24T01:38:44;99995.50;;;24.50;65.02
60427;BME280;46274;47.168;27.604;2022-08-24T01:44:46;99974.66;;;24.37;64.84
60427;BME280;46274;47.168;27.604;2022-08-24T01:50:48;99983.56;;;24.50;64.75
60427;BME280;46274;47.168;27.604;2022-08-24T01:56:50;99971.91;;;24.43;65.04
60427;BME280;46274;47.168;27.604;2022-08-24T02:02:53;99948.84;;;24.27;65.24
60427;BME280;46274;47.168;27.604;2022-08-24T02:08:57;99968.31;;;24.42;65.02
60427;BME280;46274;47.168;27.604;2022-08-24T02:14:59;99949.44;;;24.39;64.65
60427;BME280;46274;47.168;27.604;2022-08-24T02:21:02;99928.63;;;24.31;64.92
60427;BME280;46274;47.168;27.604;2022-08-24T02:27:04;99925.63;;;24.38;64.75
60427;BME280;46274;47.168;27.604;2022-08-24T02:33:07;99911.50;;;24.29;65.12
60427;BME280;46274;47.168;27.604;2022-08-24T02:39:10;99933.94;;;24.43;64.54
60427;BME280;46274;47.168;27.604;2022-08-24T02:45:11;99923.97;;;24.37;65.03
60427;BME280;46274;47.168;27.604;2022-08-24T02:51:22;99936.44;;;24.40;64.72
60427;BME280;46274;47.168;27.604;2022-08-24T02:57:26;99934.19;;;24.36;64.68
60427;BME280;46274;47.168;27.604;2022-08-24T03:03:28;99940.03;;;24.35;64.33
60427;BME280;46274;47.168;27.604;2022-08-24T03:09:30;99964.69;;;24.42;64.51
60427;BME280;46274;47.168;27.604;2022-08-24T03:15:32;99944.44;;;24.31;64.64
60427;BME280;46274;47.168;27.604;2022-08-24T03:21:34;99979.63;;;24.35;64.07
60427;BME280;46274;47.168;27.604;2022-08-24T03:27:36;99969.09;;;24.37;63.82
60427;BME280;46274;47.168;27.604;2022-08-24T03:33:38;99981.78;;;24.28;63.92
60427;BME280;46274;47.168;27.604;2022-08-24T03:39:40;99995.13;;;24.36;63.96
60427;BME280;46274;47.168;27.604;2022-08-24T03:45:41;99995.69;;;24.38;64.13
60427;BME280;46274;47.168;27.604;2022-08-24T03:51:44;100005.13;;;24.43;63.98
60427;BME280;46274;47.168;27.604;2022-08-24T03:57:46;100000.91;;;24.30;63.96
60427;BME280;46274;47.168;27.604;2022-08-24T04:03:48;100003.41;;;24.31;64.17
60427;BME280;46274;47.168;27.604;2022-08-24T04:09:50;100004.00;;;24.38;63.96
60427;BME280;46274;47.168;27.604;2022-08-24T04:15:52;100014.03;;;24.45;63.52
60427;BME280;46274;47.168;27.604;2022-08-24T04:21:54;100021.72;;;24.37;64.18
60427;BME280;46274;47.168;27.604;2022-08-24T04:27:57;100036.00;;;24.14;62.63
60427;BME280;46274;47.168;27.604;2022-08-24T04:33:59;100042.09;;;22.97;65.23
60427;BME280;46274;47.168;27.604;2022-08-24T04:40:02;100041.47;;;22.07;66.35
60427;BME280;46274;47.168;27.604;2022-08-24T04:46:06;100046.34;;;22.61;64.85
60427;BME280;46274;47.168;27.604;2022-08-24T04:52:08;100026.69;;;23.93;63.15
60427;BME280;46274;47.168;27.604;2022-08-24T04:58:12;100047.63;;;23.79;61.55
60427;BME280;46274;47.168;27.604;2022-08-24T05:04:14;100047.34;;;23.75;60.54
60427;BME280;46274;47.168;27.604;2022-08-24T05:10:16;100047.13;;;23.87;61.16
60427;BME280;46274;47.168;27.604;2022-08-24T05:16:18;100050.00;;;24.02;60.41
60427;BME280;46274;47.168;27.604;2022-08-24T05:22:20;100054.22;;;24.52;59.38
60427;BME280;46274;47.168;27.604;2022-08-24T05:28:22;100057.66;;;24.75;59.22
60427;BME280;46274;47.168;27.604;2022-08-24T05:34:26;100059.09;;;24.88;58.71
60427;BME280;46274;47.168;27.604;2022-08-24T05:40:28;100069.09;;;25.04;58.71
60427;BME280;46274;47.168;27.604;2022-08-24T05:46:34;100064.72;;;25.13;58.18
60427;BME280;46274;47.168;27.604;2022-08-24T05:52:36;100070.97;;;25.92;55.64
60427;BME280;46274;47.168;27.604;2022-08-24T05:58:38;100072.00;;;26.52;54.24
60427;BME280;46274;47.168;27.604;2022-08-24T06:04:40;100072.94;;;26.92;53.02
60427;BME280;46274;47.168;27.604;2022-08-24T06:10:44;100066.22;;;25.62;58.24
60427;BME280;46274;47.168;27.604;2022-08-24T06:16:48;100061.50;;;25.62;58.51
60427;BME280;46274;47.168;27.604;2022-08-24T06:22:50;100056.22;;;25.45;57.78
60427;BME280;46274;47.168;27.604;2022-08-24T06:28:52;100073.69;;;25.46;58.36
60427;BME280;46274;47.168;27.604;2022-08-24T06:34:55;100082.03;;;25.56;58.94
60427;BME280;46274;47.168;27.604;2022-08-24T06:40:58;100070.38;;;25.54;59.20
60427;BME280;46274;47.168;27.604;2022-08-24T06:47:00;100080.34;;;25.71;58.94
60427;BME280;46274;47.168;27.604;2022-08-24T06:53:02;100070.38;;;25.64;59.18
60427;BME280;46274;47.168;27.604;2022-08-24T06:59:04;100081.47;;;25.75;59.36
60427;BME280;46274;47.168;27.604;2022-08-24T07:05:06;100075.66;;;25.61;59.97
60427;BME280;46274;47.168;27.604;2022-08-24T07:11:09;100054.28;;;25.72;59.12
60427;BME280;46274;47.168;27.604;2022-08-24T07:17:12;100080.09;;;25.72;59.55
60427;BME280;46274;47.168;27.604;2022-08-24T07:23:13;100070.38;;;25.70;59.75
60427;BME280;46274;47.168;27.604;2022-08-24T07:29:15;100069.84;;;25.88;59.47
60427;BME280;46274;47.168;27.604;2022-08-24T07:35:38;100080.09;;;25.77;59.66
60427;BME280;46274;47.168;27.604;2022-08-24T07:41:41;100064.31;;;25.88;59.09
60427;BME280;46274;47.168;27.604;2022-08-24T07:48:03;100060.41;;;25.89;58.75
60427;BME280;46274;47.168;27.604;2022-08-24T07:54:05;100079.28;;;25.97;58.94
60427;BME280;46274;47.168;27.604;2022-08-24T08:00:15;100066.50;;;25.96;59.20
60427;BME280;46274;47.168;27.604;2022-08-24T08:06:18;100072.06;;;26.06;59.36
60427;BME280;46274;47.168;27.604;2022-08-24T08:12:20;100057.59;;;26.04;59.83
60427;BME280;46274;47.168;27.604;2022-08-24T08:18:22;100035.94;;;26.11;58.80
60427;BME280;46274;47.168;27.604;2022-08-24T08:24:24;100054.31;;;26.02;59.27
60427;BME280;46274;47.168;27.604;2022-08-24T08:30:25;100054.84;;;25.89;59.58
60427;BME280;46274;47.168;27.604;2022-08-24T08:36:27;100029.84;;;25.84;59.02
60427;BME280;46274;47.168;27.604;2022-08-24T08:42:59;100058.19;;;26.01;59.57
60427;BME280;46274;47.168;27.604;2022-08-24T08:49:18;100064.56;;;25.86;60.27
60427;BME280;46274;47.168;27.604;2022-08-24T09:08:03;100059.88;;;25.92;60.53
60427;BME280;46274;47.168;27.604;2022-08-24T09:21:14;100035.41;;;25.94;61.20
60427;BME280;46274;47.168;27.604;2022-08-24T09:27:44;100034.88;;;25.92;61.06
60427;BME280;46274;47.168;27.604;2022-08-24T09:53:45;100004.06;;;25.88;61.31
60427;BME280;46274;47.168;27.604;2022-08-24T09:59:54;100001.03;;;25.85;62.05
60427;BME280;46274;47.168;27.604;2022-08-24T10:06:25;99992.69;;;25.85;62.04
60427;BME280;46274;47.168;27.604;2022-08-24T10:19:17;99982.94;;;26.03;62.26
60427;BME280;46274;47.168;27.604;2022-08-24T10:26:03;99975.19;;;26.00;62.17
60427;BME280;46274;47.168;27.604;2022-08-24T10:44:48;99987.13;;;25.80;61.99
60427;BME280;46274;47.168;27.604;2022-08-24T11:03:19;99973.25;;;25.90;61.48
60427;BME280;46274;47.168;27.604;2022-08-24T11:15:58;99963.78;;;25.81;60.97
60427;BME280;46274;47.168;27.604;2022-08-24T11:22:05;99984.63;;;25.94;60.09
60427;BME280;46274;47.168;27.604;2022-08-24T11:34:36;99981.00;;;25.98;60.39
60427;BME280;46274;47.168;27.604;2022-08-24T11:40:43;99982.13;;;26.02;60.02
60427;BME280;46274;47.168;27.604;2022-08-24T11:53:59;99971.53;;;26.09;60.39
60427;BME280;46274;47.168;27.604;2022-08-24T12:00:11;99976.56;;;26.02;59.06
60427;BME280;46274;47.168;27.604;2022-08-24T12:13:04;99970.13;;;26.12;58.80
60427;BME280;46274;47.168;27.604;2022-08-24T12:19:26;99971.00;;;26.07;57.78
60427;BME280;46274;47.168;27.604;2022-08-24T12:25:31;99953.22;;;26.08;58.13
60427;BME280;46274;47.168;27.604;2022-08-24T12:32:29;99957.66;;;26.04;57.91
60427;BME280;46274;47.168;27.604;2022-08-24T12:38:42;99948.81;;;26.02;57.61
60427;BME280;46274;47.168;27.604;2022-08-24T12:44:51;99943.25;;;26.02;57.55
60427;BME280;46274;47.168;27.604;2022-08-24T13:10:37;99957.63;;;26.15;55.76
60427;BME280;46274;47.168;27.604;2022-08-24T13:29:14;99929.88;;;26.04;56.80
60427;BME280;46274;47.168;27.604;2022-08-24T13:41:52;99949.84;;;26.17;56.20
60427;BME280;46274;47.168;27.604;2022-08-24T13:49:15;99940.47;;;26.07;55.53
60427;BME280;46274;47.168;27.604;2022-08-24T14:58:31;99977.00;;;26.30;54.76
60427;BME280;46274;47.168;27.604;2022-08-24T15:04:42;99967.03;;;26.29;54.42
60427;BME280;46274;47.168;27.604;2022-08-24T15:10:53;99965.38;;;26.23;53.01
60427;BME280;46274;47.168;27.604;2022-08-24T15:17:10;99975.06;;;26.30;51.80
60427;BME280;46274;47.168;27.604;2022-08-24T15:23:18;99977.34;;;26.23;52.20
60427;BME280;46274;47.168;27.604;2022-08-24T15:29:24;99957.63;;;26.15;52.09
60427;BME280;46274;47.168;27.604;2022-08-24T15:35:32;99984.81;;;26.23;52.82
60427;BME280;46274;47.168;27.604;2022-08-24T15:41:37;99979.53;;;26.26;52.22
60427;BME280;46274;47.168;27.604;2022-08-24T15:47:43;99971.50;;;26.20;53.25
60427;BME280;46274;47.168;27.604;2022-08-24T15:53:57;99979.81;;;26.20;52.92
60427;BME280;46274;47.168;27.604;2022-08-24T16:00:12;99979.00;;;26.19;53.23
60427;BME280;46274;47.168;27.604;2022-08-24T16:06:37;99973.59;;;26.59;47.76
60427;BME280;46274;47.168;27.604;2022-08-24T16:12:39;99986.97;;;26.46;46.85
60427;BME280;46274;47.168;27.604;2022-08-24T16:18:51;99995.06;;;26.97;39.90
60427;BME280;46274;47.168;27.604;2022-08-24T16:37:41;99991.50;;;26.87;38.96
60427;BME280;46274;47.168;27.604;2022-08-24T16:43:43;100014.53;;;26.92;38.27
60427;BME280;46274;47.168;27.604;2022-08-24T16:49:46;100023.75;;;26.93;38.32
60427;BME280;46274;47.168;27.604;2022-08-24T16:55:49;100032.78;;;27.14;37.75
60427;BME280;46274;47.168;27.604;2022-08-24T17:01:51;100024.91;;;26.82;39.23
60427;BME280;46274;47.168;27.604;2022-08-24T17:07:53;100038.97;;;26.25;43.04
60427;BME280;46274;47.168;27.604;2022-08-24T17:13:55;100039.75;;;26.46;41.54
60427;BME280;46274;47.168;27.604;2022-08-24T17:19:57;100035.94;;;26.11;44.01
60427;BME280;46274;47.168;27.604;2022-08-24T17:25:59;100049.03;;;25.96;45.78
60427;BME280;46274;47.168;27.604;2022-08-24T17:32:02;100057.31;;;25.80;45.77
60427;BME280;46274;47.168;27.604;2022-08-24T17:38:06;100039.28;;;25.73;46.96
60427;BME280;46274;47.168;27.604;2022-08-24T17:44:12;100082.59;;;26.09;47.24
60427;BME280;46274;47.168;27.604;2022-08-24T17:50:16;100067.63;;;25.90;47.81
60427;BME280;46274;47.168;27.604;2022-08-24T17:56:19;100086.75;;;26.02;49.06
60427;BME280;46274;47.168;27.604;2022-08-24T18:02:21;100095.94;;;25.87;50.05
60427;BME280;46274;47.168;27.604;2022-08-24T18:08:23;100075.63;;;25.76;49.49
60427;BME280;46274;47.168;27.604;2022-08-24T18:14:29;100074.53;;;25.82;51.03
60427;BME280;46274;47.168;27.604;2022-08-24T18:20:34;100087.88;;;25.96;50.87
60427;BME280;46274;47.168;27.604;2022-08-24T18:26:37;100087.06;;;25.95;51.81
60427;BME280;46274;47.168;27.604;2022-08-24T18:32:47;100080.34;;;25.81;52.20
60427;BME280;46274;47.168;27.604;2022-08-24T18:38:49;100090.41;;;25.87;52.38
60427;BME280;46274;47.168;27.604;2022-08-24T18:44:51;100082.56;;;25.68;52.78
60427;BME280;46274;47.168;27.604;2022-08-24T18:50:54;100093.13;;;25.72;52.73
60427;BME280;46274;47.168;27.604;2022-08-24T18:56:57;100093.41;;;25.70;53.05
60427;BME280;46274;47.168;27.604;2022-08-24T19:03:01;100085.63;;;25.62;53.20
60427;BME280;46274;47.168;27.604;2022-08-24T19:09:05;100101.16;;;25.68;53.17
60427;BME280;46274;47.168;27.604;2022-08-24T19:15:07;100092.00;;;25.62;53.33
60427;BME280;46274;47.168;27.604;2022-08-24T19:21:32;100094.78;;;25.57;53.66
60427;BME280;46274;47.168;27.604;2022-08-24T19:27:35;100103.66;;;25.54;53.24
60427;BME280;46274;47.168;27.604;2022-08-24T19:33:41;100084.47;;;25.42;53.92
60427;BME280;46274;47.168;27.604;2022-08-24T19:39:46;100103.09;;;25.52;53.92
60427;BME280;46274;47.168;27.604;2022-08-24T19:45:52;100104.78;;;25.53;54.62
60427;BME280;46274;47.168;27.604;2022-08-24T19:52:04;100102.84;;;25.54;54.10
60427;BME280;46274;47.168;27.604;2022-08-24T20:04:23;100101.97;;;25.43;54.78
60427;BME280;46274;47.168;27.604;2022-08-24T20:10:26;100113.34;;;25.46;54.66
60427;BME280;46274;47.168;27.604;2022-08-24T20:16:35;100096.94;;;25.35;54.13
60427;BME280;46274;47.168;27.604;2022-08-24T20:22:38;100106.41;;;25.39;54.65
60427;BME280;46274;47.168;27.604;2022-08-24T20:28:46;100099.22;;;25.48;54.54
60427;BME280;46274;47.168;27.604;2022-08-24T20:34:49;100111.72;;;25.56;54.93
60427;BME280;46274;47.168;27.604;2022-08-24T20:40:51;100121.44;;;25.58;55.55
60427;BME280;46274;47.168;27.604;2022-08-24T20:46:53;100103.66;;;25.49;55.11
60427;BME280;46274;47.168;27.604;2022-08-24T20:52:56;100120.03;;;25.51;55.54
60427;BME280;46274;47.168;27.604;2022-08-24T20:59:03;100128.03;;;25.42;56.19
60427;BME280;46274;47.168;27.604;2022-08-24T21:05:05;100135.25;;;25.38;55.96
60427;BME280;46274;47.168;27.604;2022-08-24T21:11:07;100138.88;;;25.43;55.98
60427;BME280;46274;47.168;27.604;2022-08-24T21:17:09;100132.97;;;25.24;54.69
60427;BME280;46274;47.168;27.604;2022-08-24T21:23:11;100144.38;;;25.28;56.18
60427;BME280;46274;47.168;27.604;2022-08-24T21:29:13;100142.44;;;25.29;56.00
60427;BME280;46274;47.168;27.604;2022-08-24T21:35:15;100121.81;;;25.14;56.27
60427;BME280;46274;47.168;27.604;2022-08-24T21:41:17;100133.53;;;25.21;56.13
60427;BME280;46274;47.168;27.604;2022-08-24T21:47:18;100120.72;;;25.10;56.33
60427;BME280;46274;47.168;27.604;2022-08-24T21:53:20;100138.25;;;25.21;55.89
60427;BME280;46274;47.168;27.604;2022-08-24T21:59:28;100149.34;;;25.21;55.70
60427;BME280;46274;47.168;27.604;2022-08-24T22:05:30;100146.31;;;25.22;55.76
60427;BME280;46274;47.168;27.604;2022-08-24T22:11:32;100134.84;;;25.14;55.85
60427;BME280;46274;47.168;27.604;2022-08-24T22:17:34;100135.66;;;25.09;55.85
60427;BME280;46274;47.168;27.604;2022-08-24T22:23:36;100127.88;;;25.06;56.09
60427;BME280;46274;47.168;27.604;2022-08-24T22:29:38;100137.03;;;25.07;56.15
60427;BME280;46274;47.168;27.604;2022-08-24T22:35:41;100136.19;;;25.06;55.64
60427;BME280;46274;47.168;27.604;2022-08-24T22:41:45;100136.22;;;25.11;55.42
60427;BME280;46274;47.168;27.604;2022-08-24T22:47:47;100126.22;;;25.05;55.44
60427;BME280;46274;47.168;27.604;2022-08-24T22:53:49;100124.00;;;25.02;55.81
60427;BME280;46274;47.168;27.604;2022-08-24T22:59:51;100111.75;;;24.88;55.81
60427;BME280;46274;47.168;27.604;2022-08-24T23:05:53;100128.38;;;24.93;55.84
60427;BME280;46274;47.168;27.604;2022-08-24T23:11:55;100123.41;;;24.90;55.91
60427;BME280;46274;47.168;27.604;2022-08-24T23:17:56;100121.19;;;24.92;55.63
60427;BME280;46274;47.168;27.604;2022-08-24T23:23:59;100124.75;;;24.82;56.15
60427;BME280;46274;47.168;27.604;2022-08-24T23:30:00;100098.94;;;24.76;55.90
60427;BME280;46274;47.168;27.604;2022-08-24T23:36:10;100108.91;;;24.77;56.49
60427;BME280;46274;47.168;27.604;2022-08-24T23:42:13;100108.91;;;24.77;56.43
60427;BME280;46274;47.168;27.604;2022-08-24T23:48:14;100105.84;;;24.69;56.11
60427;BME280;46274;47.168;27.604;2022-08-24T23:54:17;100094.75;;;24.69;56.13
